Time,TemperatureF,DewpointF,PressureIn,WindDirection,WindDirectionDegrees,WindSpeedMPH,WindSpeedGustMPH,Humidity,HourlyPrecipIn,Conditions,Clouds,dailyrainin,SoftwareType,DateUTC
2013-06-02 00:02:00,69.0,56.0,29.71,East,92,3.0,13.0,64,0.00,,,0.00,,2013-06-02 05:02:00,
2013-06-02 00:12:00,69.0,56.0,29.71,East,92,3.0,13.0,64,0.00,,,0.00,,2013-06-02 05:12:00,
2013-06-02 00:22:00,69.0,56.0,29.71,East,92,3.0,13.0,64,0.00,,,0.00,,2013-06-02 05:22:00,
2013-06-02 00:32:00,68.0,56.0,29.71,ESE,120,5.0,13.0,66,0.00,,,0.00,,2013-06-02 05:32:00,
2013-06-02 00:42:00,68.0,56.0,29.71,ESE,120,5.0,13.0,66,0.00,,,0.00,,2013-06-02 05:42:00,
2013-06-02 00:52:00,68.0,56.0,29.71,ESE,120,5.0,13.0,66,0.00,,,0.00,,2013-06-02 05:52:00,
2013-06-02 01:01:00,67.0,56.0,29.71,East,86,6.0,12.0,67,0.00,,,0.00,,2013-06-02 06:01:00,
2013-06-02 01:12:00,67.0,56.0,29.71,East,86,6.0,12.0,67,0.00,,,0.00,,2013-06-02 06:12:00,
2013-06-02 01:21:00,67.0,56.0,29.71,East,86,6.0,12.0,67,0.00,,,0.00,,2013-06-02 06:21:00,
2013-06-02 01:32:00,66.0,52.0,29.73,ENE,78,5.0,12.0,60,0.00,,,0.00,,2013-06-02 06:32:00,
2013-06-02 01:42:00,66.0,52.0,29.73,ENE,78,5.0,12.0,60,0.00,,,0.00,,2013-06-02 06:42:00,
2013-06-02 01:52:00,66.0,52.0,29.73,ENE,78,5.0,12.0,60,0.00,,,0.00,,2013-06-02 06:52:00,
2013-06-02 02:01:00,65.0,48.0,29.74,East,93,3.0,12.0,54,0.00,,,0.00,,2013-06-02 07:01:00,
2013-06-02 02:11:00,65.0,48.0,29.74,East,93,3.0,12.0,54,0.00,,,0.00,,2013-06-02 07:11:00,
2013-06-02 02:21:00,65.0,48.0,29.74,East,93,3.0,12.0,54,0.00,,,0.00,,2013-06-02 07:21:00,
2013-06-02 02:32:00,65.0,48.0,29.74,East,89,5.0,13.0,54,0.00,,,0.00,,2013-06-02 07:32:00,
2013-06-02 02:42:00,65.0,48.0,29.74,East,89,5.0,13.0,54,0.00,,,0.00,,2013-06-02 07:42:00,
2013-06-02 02:52:00,65.0,48.0,29.74,East,89,5.0,13.0,54,0.00,,,0.00,,2013-06-02 07:52:00,
2013-06-02 03:01:00,64.0,47.0,29.75,East,82,5.0,12.0,53,0.00,,,0.00,,2013-06-02 08:01:00,
2013-06-02 03:12:00,64.0,47.0,29.75,East,82,5.0,12.0,53,0.00,,,0.00,,2013-06-02 08:12:00,
2013-06-02 03:21:00,64.0,47.0,29.75,East,82,5.0,12.0,53,0.00,,,0.00,,2013-06-02 08:21:00,
2013-06-02 03:32:00,63.0,48.0,29.74,East,96,2.0,8.0,57,0.00,,,0.00,,2013-06-02 08:32:00,
2013-06-02 03:42:00,63.0,48.0,29.74,East,96,2.0,8.0,57,0.00,,,0.00,,2013-06-02 08:42:00,
2013-06-02 03:52:00,63.0,48.0,29.74,East,96,2.0,8.0,57,0.00,,,0.00,,2013-06-02 08:52:00,
2013-06-02 04:01:00,63.0,48.0,29.73,East,100,3.0,8.0,57,0.00,,,0.00,,2013-06-02 09:01:00,
2013-06-02 04:11:00,63.0,48.0,29.73,East,100,3.0,8.0,57,0.00,,,0.00,,2013-06-02 09:11:00,
2013-06-02 04:21:00,63.0,48.0,29.73,East,100,3.0,8.0,57,0.00,,,0.00,,2013-06-02 09:21:00,
2013-06-02 04:33:00,63.0,48.0,29.73,East,83,3.0,7.0,59,0.00,,,0.00,,2013-06-02 09:33:00,
2013-06-02 04:43:00,63.0,48.0,29.73,East,83,3.0,7.0,59,0.00,,,0.00,,2013-06-02 09:43:00,
2013-06-02 04:53:00,63.0,48.0,29.73,East,83,3.0,7.0,59,0.00,,,0.00,,2013-06-02 09:53:00,
2013-06-02 05:02:00,62.0,48.0,29.75,SE,126,6.0,10.0,61,0.00,,,0.00,,2013-06-02 10:02:00,
2013-06-02 05:12:00,62.0,48.0,29.75,SE,126,6.0,10.0,61,0.00,,,0.00,,2013-06-02 10:12:00,
2013-06-02 05:22:00,62.0,48.0,29.75,SE,126,6.0,10.0,61,0.00,,,0.00,,2013-06-02 10:22:00,
2013-06-02 05:32:00,61.0,49.0,29.74,SE,128,2.0,12.0,64,0.00,,,0.00,,2013-06-02 10:32:00,
2013-06-02 05:42:00,61.0,49.0,29.74,SE,128,2.0,12.0,64,0.00,,,0.00,,2013-06-02 10:42:00,
2013-06-02 05:52:00,61.0,49.0,29.74,SE,128,2.0,12.0,64,0.00,,,0.00,,2013-06-02 10:52:00,
2013-06-02 06:02:00,61.0,52.0,29.74,ENE,75,3.0,8.0,71,0.00,,,0.00,,2013-06-02 11:02:00,
2013-06-02 06:12:00,61.0,52.0,29.74,ENE,75,3.0,8.0,71,0.00,,,0.00,,2013-06-02 11:12:00,
2013-06-02 06:22:00,61.0,52.0,29.74,ENE,75,3.0,8.0,71,0.00,,,0.00,,2013-06-02 11:22:00,
2013-06-02 06:32:00,60.0,51.0,29.74,East,95,0.0,8.0,73,0.00,,,0.00,,2013-06-02 11:32:00,
2013-06-02 06:42:00,60.0,51.0,29.74,East,95,0.0,8.0,73,0.00,,,0.00,,2013-06-02 11:42:00,
2013-06-02 06:52:00,60.0,51.0,29.74,East,95,0.0,8.0,73,0.00,,,0.00,,2013-06-02 11:52:00,
2013-06-02 07:01:00,60.0,52.0,29.76,East,95,2.0,6.0,76,0.00,,,0.00,,2013-06-02 12:01:00,
2013-06-02 07:11:00,60.0,52.0,29.76,East,95,2.0,6.0,76,0.00,,,0.00,,2013-06-02 12:11:00,
2013-06-02 07:21:00,60.0,52.0,29.76,East,95,2.0,6.0,76,0.00,,,0.00,,2013-06-02 12:21:00,
2013-06-02 07:32:00,60.0,53.0,29.76,East,90,2.0,6.0,79,0.00,,,0.00,,2013-06-02 12:32:00,
2013-06-02 07:42:00,60.0,53.0,29.76,East,90,2.0,6.0,79,0.00,,,0.00,,2013-06-02 12:42:00,
2013-06-02 07:52:00,60.0,53.0,29.76,East,90,2.0,6.0,79,0.00,,,0.00,,2013-06-02 12:52:00,
2013-06-02 08:01:00,61.0,53.0,29.79,East,86,0.0,6.0,76,0.00,,,0.00,,2013-06-02 13:01:00,
2013-06-02 08:11:00,61.0,53.0,29.79,East,86,0.0,6.0,76,0.00,,,0.00,,2013-06-02 13:11:00,
2013-06-02 08:21:00,61.0,53.0,29.79,East,86,0.0,6.0,76,0.00,,,0.00,,2013-06-02 13:21:00,
2013-06-02 08:32:00,62.0,54.0,29.78,East,85,0.0,5.0,76,0.00,,,0.00,,2013-06-02 13:32:00,
2013-06-02 08:42:00,62.0,54.0,29.78,East,85,0.0,5.0,76,0.00,,,0.00,,2013-06-02 13:42:00,
2013-06-02 08:52:00,62.0,54.0,29.78,East,85,0.0,5.0,76,0.00,,,0.00,,2013-06-02 13:52:00,
2013-06-02 09:02:00,64.0,56.0,29.79,East,99,3.0,7.0,74,0.00,,,0.00,,2013-06-02 14:02:00,
2013-06-02 09:11:00,64.0,56.0,29.79,East,99,3.0,7.0,74,0.00,,,0.00,,2013-06-02 14:11:00,
2013-06-02 09:21:00,64.0,56.0,29.79,East,99,3.0,7.0,74,0.00,,,0.00,,2013-06-02 14:21:00,
2013-06-02 09:32:00,65.0,55.0,29.79,ENE,78,3.0,7.0,71,0.00,,,0.00,,2013-06-02 14:32:00,
2013-06-02 09:42:00,65.0,55.0,29.79,ENE,78,3.0,7.0,71,0.00,,,0.00,,2013-06-02 14:42:00,
2013-06-02 09:52:00,65.0,55.0,29.79,ENE,78,3.0,7.0,71,0.00,,,0.00,,2013-06-02 14:52:00,
2013-06-02 10:01:00,67.0,56.0,29.80,East,88,3.0,8.0,67,0.00,,,0.00,,2013-06-02 15:01:00,
2013-06-02 10:11:00,67.0,56.0,29.80,East,88,3.0,8.0,67,0.00,,,0.00,,2013-06-02 15:11:00,
2013-06-02 10:21:00,67.0,56.0,29.80,East,88,3.0,8.0,67,0.00,,,0.00,,2013-06-02 15:21:00,
2013-06-02 10:32:00,70.0,56.0,29.77,East,88,5.0,12.0,62,0.00,,,0.00,,2013-06-02 15:32:00,
2013-06-02 10:43:00,70.0,56.0,29.77,East,88,5.0,12.0,62,0.00,,,0.00,,2013-06-02 15:43:00,
2013-06-02 10:53:00,70.0,56.0,29.77,East,88,5.0,12.0,62,0.00,,,0.00,,2013-06-02 15:53:00,
2013-06-02 11:03:00,71.0,56.0,29.78,ENE,73,5.0,12.0,59,0.00,,,0.00,,2013-06-02 16:03:00,
2013-06-02 11:13:00,71.0,56.0,29.78,ENE,73,5.0,12.0,59,0.00,,,0.00,,2013-06-02 16:13:00,
2013-06-02 11:23:00,71.0,56.0,29.78,ENE,73,5.0,12.0,59,0.00,,,0.00,,2013-06-02 16:23:00,
2013-06-02 11:33:00,71.0,56.0,29.79,ESE,123,6.0,13.0,59,0.00,,,0.00,,2013-06-02 16:33:00,
2013-06-02 11:42:00,71.0,56.0,29.79,ESE,123,6.0,13.0,59,0.00,,,0.00,,2013-06-02 16:42:00,
2013-06-02 11:53:00,71.0,56.0,29.79,ESE,123,6.0,13.0,59,0.00,,,0.00,,2013-06-02 16:53:00,
2013-06-02 12:02:00,71.0,55.0,29.80,ESE,104,6.0,13.0,58,0.00,,,0.00,,2013-06-02 17:02:00,
2013-06-02 12:12:00,71.0,55.0,29.80,ESE,104,6.0,13.0,58,0.00,,,0.00,,2013-06-02 17:12:00,
2013-06-02 12:23:00,71.0,55.0,29.80,ESE,104,6.0,13.0,58,0.00,,,0.00,,2013-06-02 17:23:00,
2013-06-02 12:32:00,73.0,55.0,29.80,East,89,4.0,16.0,54,0.00,,,0.00,,2013-06-02 17:32:00,
2013-06-02 12:42:00,73.0,55.0,29.80,East,89,4.0,16.0,54,0.00,,,0.00,,2013-06-02 17:42:00,
2013-06-02 12:52:00,73.0,55.0,29.80,East,89,4.0,16.0,54,0.00,,,0.00,,2013-06-02 17:52:00,
2013-06-02 13:01:00,73.0,55.0,29.81,SE,126,5.0,20.0,54,0.00,,,0.00,,2013-06-02 18:01:00,
2013-06-02 13:11:00,73.0,55.0,29.81,SE,126,5.0,20.0,54,0.00,,,0.00,,2013-06-02 18:11:00,
2013-06-02 13:21:00,73.0,55.0,29.81,SE,126,5.0,20.0,54,0.00,,,0.00,,2013-06-02 18:21:00,
2013-06-02 13:32:00,75.0,55.0,29.79,NE,37,7.0,16.0,49,0.00,,,0.00,,2013-06-02 18:32:00,
2013-06-02 13:42:00,75.0,55.0,29.79,NE,37,7.0,16.0,49,0.00,,,0.00,,2013-06-02 18:42:00,
2013-06-02 13:52:00,75.0,55.0,29.79,NE,37,7.0,16.0,49,0.00,,,0.00,,2013-06-02 18:52:00,
2013-06-02 14:01:00,76.0,55.0,29.78,ENE,58,5.0,16.0,48,0.00,,,0.00,,2013-06-02 19:01:00,
2013-06-02 14:11:00,76.0,55.0,29.78,ENE,58,5.0,16.0,48,0.00,,,0.00,,2013-06-02 19:11:00,
2013-06-02 14:21:00,76.0,55.0,29.78,ENE,58,5.0,16.0,48,0.00,,,0.00,,2013-06-02 19:21:00,
2013-06-02 14:32:00,78.0,54.0,29.75,SSE,160,7.0,18.0,43,0.00,,,0.00,,2013-06-02 19:32:00,
2013-06-02 14:42:00,78.0,54.0,29.75,SSE,160,7.0,18.0,43,0.00,,,0.00,,2013-06-02 19:42:00,
2013-06-02 14:52:00,78.0,54.0,29.75,SSE,160,7.0,18.0,43,0.00,,,0.00,,2013-06-02 19:52:00,
2013-06-02 15:02:00,79.0,54.0,29.73,NE,51,8.0,17.0,42,0.00,,,0.00,,2013-06-02 20:02:00,
2013-06-02 15:11:00,79.0,54.0,29.73,NE,51,8.0,17.0,42,0.00,,,0.00,,2013-06-02 20:11:00,
2013-06-02 15:22:00,79.0,54.0,29.73,NE,51,8.0,17.0,42,0.00,,,0.00,,2013-06-02 20:22:00,
2013-06-02 15:32:00,80.0,53.0,29.72,ESE,119,5.0,17.0,40,0.00,,,0.00,,2013-06-02 20:32:00,
2013-06-02 15:42:00,80.0,53.0,29.72,ESE,119,5.0,17.0,40,0.00,,,0.00,,2013-06-02 20:42:00,
2013-06-02 15:52:00,80.0,53.0,29.72,ESE,119,5.0,17.0,40,0.00,,,0.00,,2013-06-02 20:52:00,
2013-06-02 16:01:00,80.0,52.0,29.72,East,82,5.0,17.0,38,0.00,,,0.00,,2013-06-02 21:01:00,
2013-06-02 16:12:00,80.0,52.0,29.72,East,82,5.0,17.0,38,0.00,,,0.00,,2013-06-02 21:12:00,
2013-06-02 16:21:00,80.0,52.0,29.72,East,82,5.0,17.0,38,0.00,,,0.00,,2013-06-02 21:21:00,
2013-06-02 16:33:00,80.0,51.0,29.71,ESE,108,6.0,16.0,36,0.00,,,0.00,,2013-06-02 21:33:00,
2013-06-02 16:43:00,80.0,51.0,29.71,ESE,108,6.0,16.0,36,0.00,,,0.00,,2013-06-02 21:43:00,
2013-06-02 16:53:00,80.0,51.0,29.71,ESE,108,6.0,16.0,36,0.00,,,0.00,,2013-06-02 21:53:00,
2013-06-02 17:03:00,80.0,51.0,29.70,ENE,62,6.0,16.0,36,0.00,,,0.00,,2013-06-02 22:03:00,
2013-06-02 17:12:00,80.0,51.0,29.70,ENE,62,6.0,16.0,36,0.00,,,0.00,,2013-06-02 22:12:00,
2013-06-02 17:23:00,80.0,51.0,29.70,ENE,62,6.0,16.0,36,0.00,,,0.00,,2013-06-02 22:23:00,
2013-06-02 17:33:00,81.0,52.0,29.68,SSW,205,8.0,17.0,36,0.00,,,0.00,,2013-06-02 22:33:00,
2013-06-02 17:42:00,81.0,52.0,29.68,SSW,205,8.0,17.0,36,0.00,,,0.00,,2013-06-02 22:42:00,
2013-06-02 17:53:00,81.0,52.0,29.68,SSW,205,8.0,17.0,36,0.00,,,0.00,,2013-06-02 22:53:00,
2013-06-02 18:02:00,80.0,51.0,29.66,ESE,104,10.0,18.0,37,0.00,,,0.00,,2013-06-02 23:02:00,
2013-06-02 18:12:00,80.0,51.0,29.66,ESE,104,10.0,18.0,37,0.00,,,0.00,,2013-06-02 23:12:00,
2013-06-02 18:22:00,80.0,51.0,29.66,ESE,104,10.0,18.0,37,0.00,,,0.00,,2013-06-02 23:22:00,
2013-06-02 18:32:00,78.0,52.0,29.66,ENE,59,6.0,16.0,41,0.00,,,0.00,,2013-06-02 23:32:00,
2013-06-02 18:43:00,78.0,52.0,29.66,ENE,59,6.0,16.0,41,0.00,,,0.00,,2013-06-02 23:43:00,
2013-06-02 18:52:00,78.0,52.0,29.66,ENE,59,6.0,16.0,41,0.00,,,0.00,,2013-06-02 23:52:00,
2013-06-02 19:01:00,76.0,53.0,29.65,ESE,119,9.0,17.0,45,0.00,,,0.00,,2013-06-03 00:01:00,
2013-06-02 19:12:00,76.0,53.0,29.65,ESE,119,9.0,17.0,45,0.00,,,0.00,,2013-06-03 00:12:00,
2013-06-02 19:22:00,76.0,53.0,29.65,ESE,119,9.0,17.0,45,0.00,,,0.00,,2013-06-03 00:22:00,
2013-06-02 19:32:00,75.0,55.0,29.68,NNE,32,4.0,18.0,49,0.00,,,0.00,,2013-06-03 00:32:00,
2013-06-02 19:42:00,75.0,55.0,29.68,NNE,32,4.0,18.0,49,0.00,,,0.00,,2013-06-03 00:42:00,
2013-06-02 19:52:00,75.0,55.0,29.68,NNE,32,4.0,18.0,49,0.00,,,0.00,,2013-06-03 00:52:00,
2013-06-02 20:01:00,74.0,55.0,29.67,ENE,71,9.0,22.0,51,0.00,,,0.00,,2013-06-03 01:01:00,
2013-06-02 20:11:00,74.0,55.0,29.67,ENE,71,9.0,22.0,51,0.00,,,0.00,,2013-06-03 01:11:00,
2013-06-02 20:21:00,74.0,55.0,29.67,ENE,71,9.0,22.0,51,0.00,,,0.00,,2013-06-03 01:21:00,
2013-06-02 20:32:00,73.0,54.0,29.65,East,92,7.0,21.0,52,0.00,,,0.00,,2013-06-03 01:32:00,
2013-06-02 20:42:00,73.0,54.0,29.65,East,92,7.0,21.0,52,0.00,,,0.00,,2013-06-03 01:42:00,
2013-06-02 20:52:00,73.0,54.0,29.65,East,92,7.0,21.0,52,0.00,,,0.00,,2013-06-03 01:52:00,
2013-06-02 21:02:00,73.0,55.0,29.67,NE,56,3.0,18.0,53,0.00,,,0.00,,2013-06-03 02:02:00,
2013-06-02 21:12:00,73.0,55.0,29.67,NE,56,3.0,18.0,53,0.00,,,0.00,,2013-06-03 02:12:00,
2013-06-02 21:22:00,73.0,55.0,29.67,NE,56,3.0,18.0,53,0.00,,,0.00,,2013-06-03 02:22:00,
2013-06-02 21:32:00,72.0,54.0,29.71,ESE,116,2.0,16.0,54,0.00,,,0.00,,2013-06-03 02:32:00,
2013-06-02 21:42:00,72.0,54.0,29.71,ESE,116,2.0,16.0,54,0.00,,,0.00,,2013-06-03 02:42:00,
2013-06-02 21:52:00,72.0,54.0,29.71,ESE,116,2.0,16.0,54,0.00,,,0.00,,2013-06-03 02:52:00,
2013-06-02 22:02:00,72.0,56.0,29.68,North,349,5.0,12.0,58,0.00,,,0.00,,2013-06-03 03:02:00,
2013-06-02 22:12:00,72.0,56.0,29.68,North,349,5.0,12.0,58,0.00,,,0.00,,2013-06-03 03:12:00,
2013-06-02 22:22:00,72.0,56.0,29.68,North,349,5.0,12.0,58,0.00,,,0.00,,2013-06-03 03:22:00,
2013-06-02 22:33:00,67.0,54.0,29.74,SW,224,4.0,12.0,63,0.00,,,0.00,,2013-06-03 03:33:00,
2013-06-02 22:43:00,67.0,54.0,29.74,SW,224,4.0,12.0,63,0.00,,,0.00,,2013-06-03 03:43:00,
2013-06-02 22:53:00,67.0,54.0,29.74,SW,224,4.0,12.0,63,0.00,,,0.00,,2013-06-03 03:53:00,
2013-06-02 23:03:00,67.0,54.0,29.74,SW,224,4.0,12.0,63,0.00,,,0.00,,2013-06-03 04:03:00,